Time;durP1;ratioP1;P1;durP2;ratioP2;P2;SDS_P1;SDS_P2;PMS_P1;PMS_P2;Temp;Humidity;BMP_temperature;BMP_pressure;BME280_temperature;BME280_humidity;BME280_pressure;Samples;Min_cycle;Max_cycle;Signal;HPM_P1;HPM_P2
2022/01/24 00:01:57;;;;;;;19.77;8.85;;;4.50;99.90;;;;;;5087219;27;20086;-86
2022/01/24 00:04:23;;;;;;;20.48;8.35;;;4.80;99.90;;;;;;5085395;27;20908;-86
2022/01/24 00:06:50;;;;;;;19.30;8.95;;;4.60;99.90;;;;;;5082323;27;20080;-86
2022/01/24 00:09:39;;;;;;;16.52;8.43;;;4.10;99.90;;;;;;5081316;28;20041;-85
2022/01/24 00:28:15;;;;;;;17.90;7.35;;;4.90;99.90;;;;;;5072746;28;20056;-86
2022/01/24 00:33:52;;;;;;;14.90;7.78;;;4.30;99.90;;;;;;5085551;27;20055;-86
2022/01/24 00:36:23;;;;;;;14.55;8.07;;;4.30;99.90;;;;;;5080570;28;20049;-85
2022/01/24 00:39:29;;;;;;;18.03;8.97;;;4.40;99.90;;;;;;5084811;27;20537;-85
2022/01/24 00:42:30;;;;;;;17.25;7.10;;;4.70;99.90;;;;;;5072363;27;20354;-86
2022/01/24 00:54:42;;;;;;;19.10;7.95;;;4.30;99.90;;;;;;5086624;27;20068;-86
2022/01/24 00:56:54;;;;;;;23.63;8.63;;;4.40;99.90;;;;;;5079466;27;20051;-86
2022/01/24 00:59:39;;;;;;;18.70;8.63;;;4.10;99.90;;;;;;5073365;28;20072;-85
2022/01/24 01:02:29;;;;;;;;;;;;;;;;;;;;;
2022/01/24 01:19:54;;;;;;;21.25;8.88;;;3.70;99.90;;;;;;5079191;27;20052;-85
2022/01/24 01:22:42;;;;;;;19.27;9.07;;;5.00;99.90;;;;;;5084590;28;20628;-85
2022/01/24 01:25:42;;;;;;;19.33;8.63;;;3.90;99.90;;;;;;5060088;28;20044;-85
2022/01/24 01:28:17;;;;;;;19.98;7.72;;;3.50;99.90;;;;;;5068195;28;20106;-85
2022/01/24 01:30:57;;;;;;;23.73;8.75;;;4.30;99.90;;;;;;5074636;27;20048;-86
2022/01/24 01:57:27;;;;;;;16.48;7.60;;;3.90;99.90;;;;;;5039556;28;20560;-86
2022/01/24 01:59:57;;;;;;;18.27;6.70;;;3.50;99.90;;;;;;5038504;28;20037;-86
2022/01/24 02:02:26;;;;;;;21.52;10.27;;;3.70;99.90;;;;;;5042639;28;20912;-85
2022/01/24 02:05:18;;;;;;;20.35;8.65;;;3.80;99.90;;;;;;5039780;28;20049;-85
2022/01/24 02:07:58;;;;;;;23.87;8.27;;;4.00;99.90;;;;;;5044812;28;20037;-85
2022/01/24 02:10:41;;;;;;;17.60;9.45;;;4.20;99.90;;;;;;5036069;28;20186;-85
2022/01/24 02:13:46;;;;;;;21.55;8.55;;;4.30;99.90;;;;;;5045708;28;20132;-86
2022/01/24 02:25:05;;;;;;;15.27;7.93;;;3.40;99.90;;;;;;5043029;28;20049;-86
2022/01/24 02:27:42;;;;;;;22.88;8.63;;;4.40;99.90;;;;;;5043313;28;20120;-85
2022/01/24 02:30:53;;;;;;;28.60;8.40;;;3.20;99.90;;;;;;5043224;28;20049;-86
2022/01/24 02:33:23;;;;;;;16.77;8.00;;;5.20;99.90;;;;;;5029930;28;20041;-86
2022/01/24 02:36:03;;;;;;;15.38;6.47;;;4.50;99.90;;;;;;5042779;28;20044;-85
2022/01/24 02:54:08;;;;;;;19.50;7.10;;;4.70;99.90;;;;;;5081564;27;20052;-85
2022/01/24 02:56:59;;;;;;;22.75;9.38;;;3.90;99.90;;;;;;5077946;28;20060;-86
2022/01/24 02:59:56;;;;;;;19.25;7.80;;;3.70;99.90;;;;;;5087291;28;20044;-85
2022/01/24 03:02:32;;;;;;;23.55;7.78;;;3.90;99.90;;;;;;5104249;27;20153;-85
2022/01/24 03:05:02;;;;;;;17.10;7.38;;;2.40;99.90;;;;;;5080528;27;20040;-85
2022/01/24 03:07:34;;;;;;;17.02;7.30;;;3.60;99.90;;;;;;5077265;28;20067;-85
2022/01/24 03:16:09;;;;;;;20.60;7.72;;;3.60;99.90;;;;;;5087260;27;20105;-85
2022/01/24 03:18:43;;;;;;;11.75;5.72;;;5.20;99.90;;;;;;5083562;27;20051;-85
2022/01/24 03:24:32;;;;;;;16.63;7.75;;;3.90;99.90;;;;;;5081834;27;20070;-85
2022/01/24 03:30:27;;;;;;;24.67;9.73;;;3.60;99.90;;;;;;5081593;28;20076;-85
2022/01/24 03:33:07;;;;;;;19.20;7.82;;;3.60;99.90;;;;;;5086988;27;20153;-85
2022/01/24 03:35:46;;;;;;;16.30;7.53;;;3.30;99.90;;;;;;5078868;28;20045;-85
2022/01/24 03:38:36;;;;;;;16.52;7.82;;;3.70;99.90;;;;;;5071429;28;20082;-85
2022/01/24 03:41:16;;;;;;;19.80;8.23;;;3.90;99.90;;;;;;5082943;27;20040;-86
2022/01/24 03:44:18;;;;;;;18.77;7.47;;;5.20;99.90;;;;;;5076388;28;20365;-85
2022/01/24 03:52:25;;;;;;;13.20;5.82;;;2.90;99.90;;;;;;5080039;27;19919;-85
2022/01/24 03:55:07;;;;;;;19.15;7.55;;;4.70;99.90;;;;;;5085082;28;20051;-85
2022/01/24 03:57:51;;;;;;;;;;;;;;;;;;;;;
2022/01/24 04:00:23;;;;;;;14.60;6.10;;;2.80;99.90;;;;;;5087590;28;39886;-85
2022/01/24 04:06:14;;;;;;;17.40;7.00;;;3.80;99.90;;;;;;5084968;28;20045;-85
2022/01/24 04:08:50;;;;;;;14.65;7.05;;;4.20;99.90;;;;;;5087417;27;20043;-85
2022/01/24 04:11:32;;;;;;;12.63;6.75;;;3.60;99.90;;;;;;5089932;27;20047;-86
2022/01/24 04:22:55;;;;;;;19.35;7.85;;;4.10;99.90;;;;;;5085589;28;20135;-85
2022/01/24 04:25:24;;;;;;;16.40;7.95;;;4.50;99.90;;;;;;5081013;28;20135;-85
2022/01/24 04:27:56;;;;;;;15.32;5.88;;;3.60;99.90;;;;;;5083391;27;20051;-85
2022/01/24 04:30:27;;;;;;;19.67;7.65;;;3.80;99.90;;;;;;5080993;28;20052;-85
2022/01/24 04:33:27;;;;;;;18.65;5.63;;;3.30;99.90;;;;;;5085273;27;20574;-85
2022/01/24 04:36:02;;;;;;;15.38;5.90;;;3.80;99.90;;;;;;5097817;27;20056;-85
2022/01/24 04:38:34;;;;;;;17.63;7.38;;;3.90;99.90;;;;;;5100515;27;20060;-85
2022/01/24 04:41:15;;;;;;;;;;;;;;;;;;;;;
2022/01/24 04:44:49;;;;;;;13.23;6.47;;;4.50;99.90;;;;;;5100040;27;39907;-85
2022/01/24 04:53:00;;;;;;;16.42;8.15;;;5.30;99.90;;;;;;5122995;27;21331;-85
2022/01/24 04:55:34;;;;;;;14.32;6.68;;;3.30;99.90;;;;;;5121438;27;20047;-86
2022/01/24 04:58:23;;;;;;;;;;;;;;;;;;;;;
2022/01/24 05:01:01;;;;;;;21.50;8.13;;;4.10;99.90;;;;;;5094453;27;43229;-84
2022/01/24 05:03:57;;;;;;;21.55;8.32;;;3.80;99.90;;;;;;5083857;27;20051;-85
2022/01/24 05:06:37;;;;;;;24.05;9.55;;;4.30;99.90;;;;;;5084881;28;20114;-85
2022/01/24 05:09:08;;;;;;;21.00;8.77;;;4.00;99.90;;;;;;5079291;27;20587;-84
2022/01/24 05:12:03;;;;;;;17.13;9.93;;;3.20;99.90;;;;;;5073393;28;20067;-86
2022/01/24 05:26:17;;;;;;;25.63;11.15;;;4.30;99.90;;;;;;5088216;27;20051;-87
2022/01/24 05:28:57;;;;;;;32.63;12.38;;;3.50;99.90;;;;;;5066943;28;20186;-87
2022/01/24 05:31:29;;;;;;;43.92;14.55;;;3.40;99.90;;;;;;5085306;27;20392;-86
2022/01/24 05:34:01;;;;;;;32.83;12.82;;;2.70;99.90;;;;;;5064934;28;20057;-86
2022/01/24 05:36:34;;;;;;;28.70;11.93;;;4.60;99.90;;;;;;5069058;28;20682;-87
2022/01/24 05:39:12;;;;;;;20.08;9.40;;;2.60;99.90;;;;;;5078512;28;20643;-87
2022/01/24 05:41:43;;;;;;;20.77;10.30;;;3.30;99.90;;;;;;5066368;28;20061;-86
2022/01/24 05:44:21;;;;;;;28.60;11.85;;;2.70;99.90;;;;;;5086264;27;20042;-87
2022/01/24 05:47:00;;;;;;;24.67;10.38;;;3.40;99.90;;;;;;5067665;28;20055;-87
2022/01/24 05:49:56;;;;;;;16.50;8.00;;;3.20;99.90;;;;;;5084986;27;20118;-86
2022/01/24 05:53:08;;;;;;;18.42;7.60;;;3.00;99.90;;;;;;5074435;28;20127;-87
2022/01/24 05:56:25;;;;;;;;;;;;;;;;;;;;;
2022/01/24 06:02:06;;;;;;;23.63;7.78;;;4.00;99.90;;;;;;5080835;27;20041;-86
2022/01/24 06:04:50;;;;;;;24.88;7.97;;;3.00;99.90;;;;;;5083836;28;20052;-86
2022/01/24 06:07:35;;;;;;;16.88;7.32;;;4.00;99.90;;;;;;5078734;28;20586;-87
2022/01/24 06:10:06;;;;;;;17.52;7.22;;;4.70;99.90;;;;;;5076964;28;20045;-86
2022/01/24 06:12:48;;;;;;;12.02;6.43;;;3.60;99.90;;;;;;5078558;27;20040;-87
2022/01/24 06:15:27;;;;;;;18.75;7.13;;;2.30;99.90;;;;;;5089810;27;20550;-85
2022/01/24 06:18:12;;;;;;;28.75;9.63;;;3.80;99.90;;;;;;5082975;27;20149;-85
2022/01/24 06:23:54;;;;;;;14.18;7.07;;;3.70;99.90;;;;;;5078768;28;20044;-86
2022/01/24 06:26:34;;;;;;;18.27;7.05;;;3.60;99.90;;;;;;5083204;28;20052;-86
2022/01/24 06:29:32;;;;;;;20.77;8.15;;;3.90;99.90;;;;;;5085614;28;20059;-87
2022/01/24 06:32:24;;;;;;;16.98;7.60;;;3.30;99.90;;;;;;5077539;28;20089;-86
2022/01/24 06:35:03;;;;;;;15.60;7.68;;;2.60;99.90;;;;;;5086387;27;20091;-86
2022/01/24 06:37:43;;;;;;;18.20;7.43;;;3.10;99.90;;;;;;5082876;27;20118;-87
2022/01/24 06:40:41;;;;;;;;;;;;;;;;;;;;;
2022/01/24 06:43:30;;;;;;;12.90;6.82;;;2.20;99.90;;;;;;5072732;27;44168;-85
2022/01/24 06:45:56;;;;;;;21.58;8.00;;;4.80;99.90;;;;;;5080569;28;20060;-80
2022/01/24 06:48:25;;;;;;;19.45;8.18;;;3.40;99.90;;;;;;5082722;28;20118;-83
2022/01/24 06:51:35;;;;;;;18.08;7.05;;;2.90;99.90;;;;;;5077419;28;20047;-84
2022/01/24 06:54:21;;;;;;;18.67;7.90;;;2.50;99.90;;;;;;5072786;27;20041;-84
2022/01/24 06:57:55;;;;;;;19.10;8.85;;;3.30;99.90;;;;;;5085743;27;20040;-87
2022/01/24 07:00:59;;;;;;;17.38;7.55;;;4.60;99.90;;;;;;5096685;27;20040;-85
2022/01/24 07:03:36;;;;;;;19.33;8.23;;;0.70;99.90;;;;;;5080984;28;20040;-85
2022/01/24 07:06:40;;;;;;;17.75;6.75;;;3.00;99.90;;;;;;5084130;28;20044;-84
2022/01/24 07:09:26;;;;;;;18.40;8.30;;;3.00;99.90;;;;;;5090469;27;20053;-84
2022/01/24 07:20:13;;;;;;;;;;;;;;;;;;;;;
2022/01/24 07:23:26;;;;;;;10.68;6.05;;;3.60;99.90;;;;;;5099930;27;43559;-80
2022/01/24 07:26:18;;;;;;;;;;;3.90;99.90;;;;;;5101403;27;20044;-80
2022/01/24 07:29:53;;;;;;;18.15;6.65;;;3.00;99.90;;;;;;5096275;27;19924;-80
2022/01/24 07:32:53;;;;;;;23.35;8.60;;;1.20;99.90;;;;;;5079771;27;20141;-82
2022/01/24 07:35:41;;;;;;;19.02;7.00;;;3.10;99.90;;;;;;5109957;27;20081;-82
2022/01/24 07:38:34;;;;;;;13.70;6.82;;;3.50;99.90;;;;;;5097769;27;20594;-81
2022/01/24 07:41:30;;;;;;;21.20;6.70;;;3.10;99.90;;;;;;5098463;27;20055;-81
2022/01/24 07:44:12;;;;;;;16.50;6.65;;;1.50;99.90;;;;;;5124164;27;20048;-82
2022/01/24 07:46:40;;;;;;;22.08;7.32;;;2.40;99.90;;;;;;5097409;27;20841;-82
2022/01/24 07:49:28;;;;;;;20.45;8.23;;;1.10;99.90;;;;;;5102045;27;20040;-82
2022/01/24 07:52:04;;;;;;;18.05;8.10;;;3.40;99.90;;;;;;5104474;27;20052;-82
2022/01/24 07:54:33;;;;;;;21.48;7.63;;;2.00;99.90;;;;;;5102373;27;20040;-84
2022/01/24 07:57:19;;;;;;;17.15;8.98;;;3.50;99.90;;;;;;5100436;27;20071;-82
2022/01/24 07:59:49;;;;;;;19.65;8.15;;;3.20;99.90;;;;;;5098595;27;20541;-82
2022/01/24 08:02:15;;;;;;;19.45;7.60;;;2.90;99.90;;;;;;5105467;27;20028;-82
2022/01/24 08:05:02;;;;;;;18.88;8.18;;;4.00;99.90;;;;;;5101331;27;20055;-82
2022/01/24 08:07:42;;;;;;;20.05;7.93;;;1.30;99.90;;;;;;5099085;27;20490;-81
2022/01/24 08:10:19;;;;;;;21.15;8.02;;;2.80;99.90;;;;;;5107363;27;20036;-81
2022/01/24 08:12:51;;;;;;;18.33;8.10;;;2.40;99.90;;;;;;5104600;27;20687;-81
2022/01/24 08:15:28;;;;;;;24.08;9.88;;;3.50;99.90;;;;;;5109170;27;20560;-81
2022/01/24 08:18:02;;;;;;;23.48;8.27;;;2.60;99.90;;;;;;5101714;27;20048;-81
2022/01/24 08:20:34;;;;;;;14.35;6.85;;;3.00;99.90;;;;;;5103524;27;20116;-81
2022/01/24 08:23:05;;;;;;;19.83;9.18;;;2.90;99.90;;;;;;5103451;27;20027;-81
2022/01/24 08:25:44;;;;;;;20.42;9.13;;;2.60;99.90;;;;;;5103799;27;20059;-81
2022/01/24 08:28:23;;;;;;;13.00;6.30;;;3.30;99.90;;;;;;5094442;28;20048;-81
2022/01/24 08:30:54;;;;;;;18.02;8.43;;;3.50;99.90;;;;;;5084115;28;20802;-81
2022/01/24 08:33:23;;;;;;;19.33;7.47;;;3.10;99.90;;;;;;5089346;28;20151;-81
2022/01/24 08:35:51;;;;;;;14.25;6.95;;;4.00;99.90;;;;;;5082514;28;20070;-81
2022/01/24 08:38:20;;;;;;;13.52;6.68;;;2.90;99.90;;;;;;5088116;28;20613;-81
2022/01/24 08:40:56;;;;;;;21.70;9.52;;;2.80;99.90;;;;;;5086516;28;20098;-81
2022/01/24 08:46:23;;;;;;;24.60;8.38;;;2.40;99.90;;;;;;5070981;28;20507;-81
2022/01/24 08:48:54;;;;;;;19.13;8.10;;;3.10;99.90;;;;;;5097797;28;20044;-81
2022/01/24 08:51:23;;;;;;;19.95;9.40;;;3.50;99.90;;;;;;5088210;28;20526;-81
2022/01/24 08:53:51;;;;;;;22.13;8.82;;;2.60;99.90;;;;;;5092249;28;20048;-81
2022/01/24 08:56:25;;;;;;;22.15;7.93;;;3.90;99.90;;;;;;5091791;28;20055;-81
2022/01/24 08:59:03;;;;;;;17.50;7.35;;;3.80;99.90;;;;;;5088306;28;20102;-82
2022/01/24 09:01:29;;;;;;;25.85;10.00;;;3.50;99.90;;;;;;5092088;28;20180;-82
2022/01/24 09:04:10;;;;;;;21.65;9.10;;;3.20;99.90;;;;;;5103074;27;20612;-82
2022/01/24 09:06:43;;;;;;;24.30;9.25;;;3.10;99.90;;;;;;5089336;28;20128;-81
2022/01/24 09:09:20;;;;;;;27.38;8.70;;;3.60;99.90;;;;;;5092164;28;20105;-81
2022/01/24 09:11:57;;;;;;;18.85;7.28;;;3.30;99.90;;;;;;5084016;28;20050;-81
2022/01/24 09:14:26;;;;;;;19.08;8.95;;;3.00;99.90;;;;;;5095645;27;20051;-81
2022/01/24 09:16:52;;;;;;;20.98;9.15;;;3.40;99.90;;;;;;5087822;27;20530;-81
2022/01/24 09:19:18;;;;;;;14.95;7.18;;;3.60;99.90;;;;;;5113503;27;20122;-81
2022/01/24 09:21:44;;;;;;;20.13;9.45;;;3.10;99.90;;;;;;5112647;27;20577;-81
2022/01/24 09:24:10;;;;;;;21.50;7.50;;;3.50;99.90;;;;;;5090650;27;20557;-81
2022/01/24 09:26:35;;;;;;;17.42;7.70;;;3.10;99.90;;;;;;5111411;27;20048;-80
2022/01/24 09:29:02;;;;;;;21.55;7.82;;;3.50;99.90;;;;;;5091870;27;20075;-80
2022/01/24 09:31:28;;;;;;;29.30;9.15;;;3.50;99.90;;;;;;5109506;27;20470;-81
2022/01/24 09:33:54;;;;;;;16.30;7.65;;;3.00;99.90;;;;;;5092965;27;20050;-81
2022/01/24 09:36:20;;;;;;;19.90;8.15;;;3.70;99.90;;;;;;5115784;27;20597;-80
2022/01/24 09:38:46;;;;;;;20.95;9.70;;;3.30;99.90;;;;;;5107230;27;20067;-80
2022/01/24 09:41:13;;;;;;;23.48;7.68;;;3.40;99.90;;;;;;5090772;27;20127;-80
2022/01/24 09:43:40;;;;;;;19.42;8.00;;;3.10;99.90;;;;;;5080001;27;20087;-81
2022/01/24 09:46:08;;;;;;;14.95;7.35;;;4.00;99.90;;;;;;5089941;27;20063;-80
2022/01/24 09:48:34;;;;;;;20.83;7.78;;;3.70;99.90;;;;;;5091596;27;20143;-80
2022/01/24 09:51:00;;;;;;;15.82;7.78;;;3.60;99.90;;;;;;5106759;27;20063;-80
2022/01/24 09:53:26;;;;;;;28.13;10.05;;;3.40;99.90;;;;;;5106944;27;20098;-80
2022/01/24 09:55:53;;;;;;;14.40;7.18;;;4.00;99.90;;;;;;5102116;27;20046;-80
2022/01/24 09:58:20;;;;;;;18.02;7.28;;;3.60;99.90;;;;;;5110648;27;20043;-79
2022/01/24 10:00:46;;;;;;;18.70;7.57;;;3.70;99.90;;;;;;5105755;27;20047;-79
2022/01/24 10:03:13;;;;;;;22.52;7.68;;;3.50;99.90;;;;;;5104713;27;20039;-80
2022/01/24 10:05:42;;;;;;;19.08;8.98;;;3.50;99.90;;;;;;5111966;27;20043;-80
2022/01/24 10:08:14;;;;;;;22.42;8.25;;;3.30;99.90;;;;;;5085849;27;20883;-80
2022/01/24 10:10:47;;;;;;;17.70;6.70;;;3.50;99.90;;;;;;5110453;27;21098;-80
2022/01/24 10:16:30;;;;;;;23.00;7.85;;;3.50;99.90;;;;;;5111036;27;20056;-80
2022/01/24 10:19:16;;;;;;;21.85;8.95;;;3.50;99.90;;;;;;5105496;27;20078;-80
2022/01/24 10:22:00;;;;;;;20.23;8.32;;;3.60;99.90;;;;;;5110456;27;20162;-80
2022/01/24 10:24:30;;;;;;;21.35;9.50;;;3.70;99.90;;;;;;5111214;27;20063;-81
2022/01/24 10:27:15;;;;;;;22.13;8.32;;;3.30;99.90;;;;;;5093578;27;21059;-81
2022/01/24 10:29:45;;;;;;;18.83;8.20;;;3.70;99.90;;;;;;5113015;27;20131;-81
2022/01/24 10:32:48;;;;;;;19.35;9.05;;;3.70;99.90;;;;;;5111489;27;20047;-80
2022/01/24 10:35:20;;;;;;;;;;;3.80;99.90;;;;;;5090044;27;20043;-81
2022/01/24 10:37:49;;;;;;;16.83;7.65;;;3.80;99.90;;;;;;5087863;27;19924;-80
2022/01/24 10:41:24;;;;;;;15.95;6.80;;;4.00;99.90;;;;;;5087944;27;20894;-80
2022/01/24 10:43:27;;;;;;;17.63;8.80;;;3.80;99.90;;;;;;5103917;27;20110;-79
2022/01/24 10:45:55;;;;;;;18.98;7.80;;;3.80;99.90;;;;;;5107765;27;20506;-81
2022/01/24 10:48:27;;;;;;;17.05;9.10;;;4.10;99.90;;;;;;5085457;27;20094;-80
2022/01/24 10:51:18;;;;;;;22.98;9.20;;;3.80;99.90;;;;;;5092322;27;20043;-80
2022/01/24 10:53:45;;;;;;;14.23;6.75;;;3.90;99.90;;;;;;5103580;27;20866;-80
2022/01/24 10:56:28;;;;;;;22.30;8.00;;;3.90;99.90;;;;;;5113341;27;20048;-80
2022/01/24 10:59:04;;;;;;;17.52;6.38;;;4.00;99.90;;;;;;5084570;27;20165;-80
2022/01/24 11:01:30;;;;;;;14.48;7.05;;;4.00;99.90;;;;;;5105044;27;20047;-80
2022/01/24 11:04:07;;;;;;;18.17;8.02;;;4.20;99.90;;;;;;5106357;27;20044;-80
2022/01/24 11:06:39;;;;;;;15.52;7.38;;;4.00;99.90;;;;;;5103273;27;20040;-80
2022/01/24 11:09:26;;;;;;;20.30;8.77;;;4.00;99.90;;;;;;5087756;27;20582;-79
2022/01/24 11:11:59;;;;;;;14.98;8.05;;;4.10;99.90;;;;;;5089965;27;20044;-80
2022/01/24 11:14:27;;;;;;;16.63;7.03;;;4.10;99.90;;;;;;5093731;27;20040;-80
2022/01/24 11:16:55;;;;;;;15.60;6.38;;;4.00;99.90;;;;;;5085117;27;20933;-80
2022/01/24 11:21:53;;;;;;;17.65;7.82;;;3.80;99.90;;;;;;5110181;27;20130;-80
2022/01/24 11:24:23;;;;;;;19.20;6.93;;;4.00;99.90;;;;;;5104258;27;20063;-80
2022/01/24 11:26:49;;;;;;;13.65;6.68;;;4.20;99.90;;;;;;5087953;27;20047;-80
2022/01/24 11:29:18;;;;;;;19.17;6.85;;;4.00;99.90;;;;;;5091784;27;20047;-79
2022/01/24 11:32:16;;;;;;;17.63;7.38;;;4.40;99.90;;;;;;5106670;27;20075;-79
2022/01/24 11:34:47;;;;;;;16.38;6.40;;;4.30;99.90;;;;;;5081439;27;20513;-79
2022/01/24 11:37:41;;;;;;;18.83;7.55;;;4.30;99.90;;;;;;5097088;27;20098;-78
2022/01/24 11:40:13;;;;;;;13.15;5.70;;;4.40;99.90;;;;;;5092909;27;20039;-85
2022/01/24 11:42:40;;;;;;;21.25;7.25;;;4.40;99.90;;;;;;5093889;27;20054;-79
2022/01/24 11:45:14;;;;;;;22.00;7.22;;;4.40;99.90;;;;;;5106676;27;20043;-78
2022/01/24 11:47:41;;;;;;;14.38;6.68;;;4.40;99.90;;;;;;5112872;27;20064;-79
2022/01/24 11:50:26;;;;;;;17.42;7.38;;;4.60;99.90;;;;;;5090295;27;20125;-79
2022/01/24 11:52:54;;;;;;;14.60;7.15;;;4.20;99.90;;;;;;5084646;27;20559;-79
2022/01/24 11:55:31;;;;;;;17.27;7.40;;;4.50;99.90;;;;;;5112842;27;20046;-79
2022/01/24 11:58:05;;;;;;;16.90;7.85;;;5.10;99.90;;;;;;5089952;27;20039;-79
2022/01/24 12:00:38;;;;;;;15.15;6.50;;;4.50;99.90;;;;;;5109700;27;20040;-80
2022/01/24 12:03:15;;;;;;;16.60;6.45;;;4.30;99.90;;;;;;5089314;27;20044;-79
2022/01/24 12:05:48;;;;;;;17.40;6.63;;;5.30;99.90;;;;;;5092720;27;20031;-79
2022/01/24 12:08:31;;;;;;;15.85;6.45;;;5.10;99.90;;;;;;5112528;27;20028;-78
2022/01/24 12:11:19;;;;;;;12.20;6.45;;;4.60;99.90;;;;;;5108792;27;20039;-79
2022/01/24 12:13:51;;;;;;;13.55;6.32;;;4.70;99.90;;;;;;5107355;27;20035;-79
2022/01/24 12:16:18;;;;;;;16.35;7.65;;;5.20;99.90;;;;;;5087101;27;20073;-78
2022/01/24 12:18:47;;;;;;;12.98;5.70;;;4.90;99.90;;;;;;5112605;27;20330;-79
2022/01/24 12:21:15;;;;;;;14.77;6.90;;;4.80;99.90;;;;;;5103893;27;20667;-79
2022/01/24 12:23:55;;;;;;;18.30;7.97;;;5.60;99.90;;;;;;5117797;27;20041;-78
2022/01/24 12:26:25;;;;;;;17.45;7.78;;;4.80;99.90;;;;;;5104090;27;20108;-78
2022/01/24 12:29:02;;;;;;;17.88;6.60;;;4.80;99.90;;;;;;5092677;27;20067;-78
2022/01/24 12:31:42;;;;;;;11.10;5.65;;;4.90;99.90;;;;;;5116172;27;20035;-79
2022/01/24 12:34:12;;;;;;;13.77;5.28;;;4.90;99.90;;;;;;5108837;27;20039;-79
2022/01/24 12:36:47;;;;;;;15.40;7.55;;;4.90;99.90;;;;;;5107991;27;20071;-79
2022/01/24 12:39:36;;;;;;;15.57;8.25;;;4.90;99.90;;;;;;5109152;27;20040;-79
2022/01/24 12:42:12;;;;;;;12.50;6.65;;;4.90;99.90;;;;;;5091496;27;20043;-78
2022/01/24 12:47:13;;;;;;;21.67;7.55;;;4.90;99.90;;;;;;5108322;27;20089;-79
2022/01/24 12:49:40;;;;;;;14.35;6.57;;;5.00;99.90;;;;;;5105018;27;20048;-79
2022/01/24 12:52:11;;;;;;;16.58;6.47;;;5.00;99.90;;;;;;5084702;27;20997;-79
2022/01/24 12:54:46;;;;;;;14.40;7.82;;;5.00;99.90;;;;;;5090251;27;20051;-78
2022/01/24 12:57:14;;;;;;;19.05;6.93;;;4.20;99.90;;;;;;5108673;27;20097;-79
2022/01/24 12:59:54;;;;;;;19.02;8.23;;;5.00;99.90;;;;;;5089244;27;20066;-79
2022/01/24 13:02:28;;;;;;;14.93;6.88;;;5.00;99.90;;;;;;5111753;27;20042;-82
2022/01/24 13:05:10;;;;;;;19.65;7.85;;;4.80;99.90;;;;;;5096256;27;20046;-81
2022/01/24 13:07:37;;;;;;;14.27;5.53;;;5.00;99.90;;;;;;5099146;27;20046;-81
2022/01/24 13:10:15;;;;;;;14.80;6.65;;;5.70;99.90;;;;;;5098539;27;20618;-80
2022/01/24 13:12:42;;;;;;;11.13;5.80;;;5.00;99.90;;;;;;5099483;27;20031;-80
2022/01/24 13:15:23;;;;;;;16.73;8.63;;;5.00;99.90;;;;;;5111283;27;20087;-81
2022/01/24 13:21:07;;;;;;;11.90;5.75;;;5.70;99.90;;;;;;5118260;27;20135;-82
2022/01/24 13:23:34;;;;;;;20.08;9.18;;;5.10;99.90;;;;;;5108654;27;20814;-81
2022/01/24 13:25:59;;;;;;;16.98;5.85;;;5.40;99.90;;;;;;5112240;27;20023;-80
2022/01/24 13:28:25;;;;;;;15.40;7.35;;;5.20;99.90;;;;;;5102467;27;20108;-80
2022/01/24 13:31:01;;;;;;;16.30;6.45;;;5.20;99.90;;;;;;5105589;27;20905;-81
2022/01/24 13:33:29;;;;;;;10.90;5.85;;;5.30;99.90;;;;;;5114527;27;20046;-80
2022/01/24 13:36:00;;;;;;;10.30;5.22;;;5.10;99.90;;;;;;5094211;27;20139;-81
2022/01/24 13:38:30;;;;;;;12.27;5.97;;;5.30;99.90;;;;;;5093073;27;20048;-81
2022/01/24 13:41:12;;;;;;;21.90;6.07;;;6.10;99.90;;;;;;5095712;27;20098;-80
2022/01/24 13:43:45;;;;;;;11.18;5.38;;;5.40;99.90;;;;;;5109569;27;20039;-80
2022/01/24 13:46:12;;;;;;;13.88;6.05;;;6.40;99.90;;;;;;5097174;27;20575;-81
2022/01/24 13:49:01;;;;;;;15.93;6.68;;;5.40;99.90;;;;;;5109696;27;20180;-80
2022/01/24 13:51:54;;;;;;;18.55;7.25;;;5.40;99.90;;;;;;5107145;27;20884;-80
2022/01/24 13:54:26;;;;;;;;;;;5.60;99.90;;;;;;5113508;27;20043;-81
2022/01/24 13:56:57;;;;;;;10.90;5.38;;;5.40;99.90;;;;;;5088864;27;19923;-81
2022/01/24 13:59:26;;;;;;;11.50;4.65;;;5.70;99.90;;;;;;5107185;27;20100;-81
2022/01/24 14:02:12;;;;;;;13.52;6.30;;;5.40;99.90;;;;;;5086415;27;20028;-81
2022/01/24 14:04:40;;;;;;;18.00;6.28;;;5.40;99.90;;;;;;5108487;27;20570;-79
2022/01/24 14:07:11;;;;;;;11.65;5.13;;;5.40;99.90;;;;;;5107264;27;20083;-80
2022/01/24 14:09:44;;;;;;;16.58;6.50;;;5.40;99.90;;;;;;5109207;27;20066;-81
2022/01/24 14:12:18;;;;;;;18.98;5.95;;;5.40;99.90;;;;;;5098445;27;20118;-81
2022/01/24 14:14:53;;;;;;;14.52;6.45;;;5.40;99.90;;;;;;5088871;27;20048;-81
2022/01/24 14:17:36;;;;;;;17.40;8.18;;;5.80;99.90;;;;;;5113737;27;20055;-81
2022/01/24 14:20:08;;;;;;;15.43;6.53;;;5.50;99.90;;;;;;5109500;27;20114;-81
2022/01/24 14:22:39;;;;;;;10.02;5.53;;;5.50;99.90;;;;;;5086321;27;22453;-80
2022/01/24 14:25:10;;;;;;;15.18;7.25;;;5.90;99.90;;;;;;5101412;27;20040;-80
2022/01/24 14:27:40;;;;;;;11.80;5.95;;;5.50;99.90;;;;;;5081166;27;20087;-81
2022/01/24 14:30:07;;;;;;;13.40;7.18;;;5.20;99.90;;;;;;5108313;27;20043;-80
2022/01/24 14:32:38;;;;;;;18.95;6.90;;;5.50;99.90;;;;;;5104678;27;20043;-80
2022/01/24 14:35:06;;;;;;;14.55;6.43;;;5.50;99.90;;;;;;5104325;27;20055;-81
2022/01/24 14:37:50;;;;;;;15.13;6.70;;;5.50;99.90;;;;;;5086962;27;20114;-80
2022/01/24 14:40:44;;;;;;;16.77;6.50;;;5.30;99.90;;;;;;5085714;27;20050;-80
2022/01/24 14:45:55;;;;;;;20.10;6.47;;;5.90;99.90;;;;;;5108908;27;20127;-81
2022/01/24 14:48:20;;;;;;;17.05;6.88;;;6.30;99.90;;;;;;5110561;27;20044;-81
2022/01/24 14:50:48;;;;;;;17.23;7.78;;;5.40;99.90;;;;;;5104794;27;20524;-81
2022/01/24 14:53:16;;;;;;;16.45;7.28;;;5.60;99.90;;;;;;5105922;27;20664;-79
2022/01/24 14:55:42;;;;;;;14.02;8.13;;;5.60;99.90;;;;;;5089679;27;20043;-80
2022/01/24 14:58:07;;;;;;;19.60;7.45;;;5.80;99.90;;;;;;5106453;27;20398;-81
2022/01/24 15:00:34;;;;;;;13.15;7.00;;;6.30;99.90;;;;;;5108617;27;20093;-80
2022/01/24 15:03:00;;;;;;;20.85;7.60;;;5.30;99.90;;;;;;5087319;27;20032;-80
2022/01/24 15:05:25;;;;;;;13.70;7.20;;;5.60;99.90;;;;;;5085467;27;20081;-81
2022/01/24 15:07:51;;;;;;;12.40;6.18;;;5.60;99.90;;;;;;5086487;27;20040;-80
2022/01/24 15:10:17;;;;;;;14.02;6.55;;;5.60;99.90;;;;;;5095727;27;20043;-81
2022/01/24 15:12:52;;;;;;;20.30;7.78;;;5.40;99.90;;;;;;5106051;27;20782;-81
2022/01/24 15:15:20;;;;;;;17.08;6.28;;;5.60;99.90;;;;;;5088992;27;20055;-82
2022/01/24 15:25:59;;;;;;;18.92;7.07;;;6.30;99.90;;;;;;5106361;27;20087;-81
2022/01/24 15:28:25;;;;;;;15.48;7.78;;;5.60;99.90;;;;;;5091581;27;20051;-82
2022/01/24 15:30:51;;;;;;;12.70;6.25;;;5.60;99.90;;;;;;5089472;27;20092;-82
2022/01/24 15:33:16;;;;;;;12.68;5.93;;;5.50;99.90;;;;;;5089468;27;20044;-81
2022/01/24 15:35:42;;;;;;;10.45;6.22;;;5.80;99.90;;;;;;5113019;27;20032;-81
2022/01/24 15:38:08;;;;;;;20.90;7.22;;;5.60;99.90;;;;;;5112265;27;20051;-81
2022/01/24 15:40:36;;;;;;;19.90;7.07;;;6.10;99.90;;;;;;5110547;27;20055;-81
2022/01/24 15:46:46;;;;;;;15.30;6.18;;;5.50;99.90;;;;;;5112161;27;20046;-81
2022/01/24 15:48:24;;;;;;;18.40;5.65;;;5.50;99.90;;;;;;5095634;27;20973;-82
2022/01/24 15:50:50;;;;;;;16.73;7.63;;;5.50;99.90;;;;;;5093072;27;20073;-81
2022/01/24 15:53:16;;;;;;;17.27;7.70;;;5.40;99.90;;;;;;5110874;27;20055;-81
2022/01/24 15:56:01;;;;;;;11.38;5.97;;;5.40;99.90;;;;;;5096050;27;20521;-81
2022/01/24 15:58:27;;;;;;;19.58;7.72;;;5.40;99.90;;;;;;5103743;27;20048;-81
2022/01/24 16:00:53;;;;;;;16.45;7.10;;;5.40;99.90;;;;;;5122464;27;20035;-82
2022/01/24 16:03:19;;;;;;;16.30;6.93;;;5.40;99.90;;;;;;5113201;27;20425;-81
2022/01/24 16:05:45;;;;;;;14.68;6.50;;;5.40;99.90;;;;;;5100577;27;20039;-81
2022/01/24 16:08:16;;;;;;;14.98;6.45;;;5.40;99.90;;;;;;5120780;27;20047;-81
2022/01/24 16:10:42;;;;;;;19.70;7.25;;;5.30;99.90;;;;;;5118310;27;20043;-82
2022/01/24 16:13:09;;;;;;;16.65;6.93;;;5.30;99.90;;;;;;5115854;27;20042;-81
2022/01/24 16:15:36;;;;;;;13.18;6.25;;;4.90;99.90;;;;;;5095081;27;20656;-81
2022/01/24 16:18:03;;;;;;;20.23;7.57;;;5.30;99.90;;;;;;5098878;27;20131;-81
2022/01/24 16:23:30;;;;;;;17.17;7.05;;;5.70;99.90;;;;;;5053328;27;20674;-81
2022/01/24 16:25:57;;;;;;;20.40;6.32;;;5.50;99.90;;;;;;5092212;27;20638;-82
2022/01/24 16:28:29;;;;;;;19.02;6.63;;;5.00;99.90;;;;;;5111049;27;20040;-81
2022/01/24 16:31:03;;;;;;;15.57;7.25;;;5.20;99.90;;;;;;5102512;27;20067;-81
2022/01/24 16:33:32;;;;;;;11.52;6.28;;;5.10;99.90;;;;;;5096422;27;20040;-81
2022/01/24 16:36:05;;;;;;;13.20;5.47;;;5.60;99.90;;;;;;5115701;27;20046;-82
2022/01/24 16:38:31;;;;;;;14.43;6.85;;;5.00;99.90;;;;;;5095149;27;20050;-81
2022/01/24 16:41:07;;;;;;;12.45;6.18;;;5.10;99.90;;;;;;5110909;27;20048;-82
2022/01/24 16:48:43;;;;;;;20.95;7.88;;;4.90;99.90;;;;;;5114990;27;20036;-81
2022/01/24 16:51:11;;;;;;;17.58;6.43;;;4.60;99.90;;;;;;5097246;27;20121;-81
2022/01/24 16:53:41;;;;;;;18.73;6.95;;;5.20;99.90;;;;;;5116670;27;20039;-81